Time;durP1;ratioP1;P1;durP2;ratioP2;P2;SDS_P1;SDS_P2;PMS_P1;PMS_P2;Temp;Humidity;BMP_temperature;BMP_pressure;BME280_temperature;BME280_humidity;BME280_pressure;Samples;Min_cycle;Max_cycle;Signal;HPM_P1;HPM_P2
2022/12/02 00:00:21;;;;;;;;;37.00;29.25;;;;;7.72;64.65;101671.00;5075400;28;45803;-76
2022/12/02 00:02:46;;;;;;;;;30.50;26.25;;;;;7.69;64.87;101669.38;5074891;28;45749;-74
2022/12/02 00:05:41;;;;;;;;;30.75;24.25;;;;;7.64;64.74;101658.28;5074780;28;45978;-73
2022/12/02 00:08:26;;;;;;;;;37.25;29.75;;;;;7.56;65.01;101642.94;5073057;27;45928;-76
2022/12/02 00:10:54;;;;;;;;;39.25;30.50;;;;;7.56;64.93;101648.16;5074918;28;45727;-76
2022/12/02 00:13:39;;;;;;;;;38.00;33.25;;;;;7.54;65.36;101649.16;5074978;28;45697;-76
2022/12/02 00:16:04;;;;;;;;;38.75;24.25;;;;;7.58;65.41;101651.56;5074645;28;46107;-73
2022/12/02 00:18:30;;;;;;;;;33.25;29.00;;;;;7.55;65.26;101651.69;5074316;28;45569;-74
2022/12/02 00:20:56;;;;;;;;;34.25;28.75;;;;;7.51;65.37;101647.50;5074576;28;45833;-75
2022/12/02 00:23:25;;;;;;;;;33.75;28.50;;;;;7.55;65.44;101649.09;5074173;28;46526;-75
2022/12/02 00:26:08;;;;;;;;;33.00;29.00;;;;;7.52;65.36;101646.59;5072943;27;46368;-75
2022/12/02 00:28:33;;;;;;;;;39.50;28.75;;;;;7.58;65.72;101645.50;5074619;28;45538;-74
2022/12/02 00:30:59;;;;;;;;;37.00;31.25;;;;;7.57;65.86;101636.81;5074348;28;45627;-77
2022/12/02 00:33:24;;;;;;;;;37.25;30.50;;;;;7.57;66.00;101642.03;5074510;28;47135;-76
2022/12/02 00:35:52;;;;;;;;;37.25;33.25;;;;;7.45;65.79;101613.03;5073962;28;46408;-76
2022/12/02 00:38:18;;;;;;;;;31.50;30.25;;;;;7.55;66.01;101632.59;5074598;28;45715;-76
2022/12/02 00:40:43;;;;;;;;;33.00;24.75;;;;;7.57;65.88;101628.16;5075091;28;45826;-76
2022/12/02 00:48:36;;;;;;;;;39.75;33.00;;;;;7.57;66.17;101626.38;5074144;28;45885;-75
2022/12/02 00:51:03;;;;;;;;;37.50;33.50;;;;;7.54;66.41;101630.91;5074211;28;45508;-75
2022/12/02 00:53:31;;;;;;;;;41.75;34.50;;;;;7.53;66.37;101609.19;5073799;28;46641;-75
2022/12/02 00:55:56;;;;;;;;;30.50;28.50;;;;;7.57;66.44;101615.97;5073761;28;46205;-75
2022/12/02 00:58:22;;;;;;;;;33.00;27.75;;;;;7.56;66.59;101613.41;5074046;28;45584;-76
2022/12/02 01:00:47;;;;;;;;;39.25;30.75;;;;;7.53;66.49;101619.63;5055590;28;45946;-75
2022/12/02 01:03:13;;;;;;;;;37.25;29.50;;;;;7.55;66.48;101630.84;5055422;28;46856;-76
2022/12/02 01:09:00;;;;;;;;;28.75;25.25;;;;;7.55;66.59;101617.81;5073801;28;45960;-76
2022/12/02 01:11:26;;;;;;;;;42.75;36.25;;;;;7.50;66.54;101616.31;5074240;28;45613;-76
2022/12/02 01:13:51;;;;;;;;;36.00;30.00;;;;;7.46;66.59;101597.31;5073277;28;46373;-75
2022/12/02 01:16:26;;;;;;;;;38.00;30.50;;;;;7.56;66.51;101605.59;5071780;28;46982;-75
2022/12/02 01:18:52;;;;;;;;;37.50;30.50;;;;;7.50;66.64;101588.44;5073529;27;45745;-75
2022/12/02 01:21:19;;;;;;;;;39.75;31.50;;;;;7.60;66.53;101604.56;5054224;28;45809;-75
2022/12/02 01:23:45;;;;;;;;;39.25;32.50;;;;;7.50;66.26;101582.41;5055025;28;47254;-77
2022/12/02 01:26:18;;;;;;;;;42.50;37.25;;;;;7.65;66.31;101605.22;5073335;28;45677;-76
2022/12/02 01:28:44;;;;;;;;;42.00;33.00;;;;;7.40;66.41;101561.06;5073474;28;45725;-74
2022/12/02 01:31:21;;;;;;;;;37.00;34.25;;;;;7.69;66.53;101603.31;5073758;28;45965;-76
2022/12/02 01:33:58;;;;;;;;;36.25;32.25;;;;;7.32;66.54;101549.28;5073714;28;46513;-74
2022/12/02 01:36:23;;;;;;;;;38.50;30.00;;;;;7.55;66.48;101581.31;5074053;28;46193;-74
2022/12/02 01:38:51;;;;;;;;;38.50;32.75;;;;;7.41;66.31;101564.53;5073394;28;45656;-75
2022/12/02 01:41:17;;;;;;;;;40.50;32.50;;;;;7.67;66.32;101615.56;5073813;28;45762;-75
2022/12/02 01:43:42;;;;;;;;;36.25;26.50;;;;;7.57;66.27;101584.66;5072959;27;46531;-75
2022/12/02 01:46:11;;;;;;;;;40.00;29.00;;;;;7.50;66.47;101579.81;5072995;28;46309;-76
2022/12/02 01:48:37;;;;;;;;;44.75;33.75;;;;;7.68;66.42;101606.81;5073077;28;45663;-74
2022/12/02 01:51:04;;;;;;;;;38.25;32.00;;;;;7.55;66.37;101598.69;5054857;28;45942;-76
2022/12/02 01:53:30;;;;;;;;;35.75;31.50;;;;;7.65;66.33;101615.66;5072999;28;46405;-74
2022/12/02 01:55:55;;;;;;;;;40.25;28.75;;;;;7.61;66.57;101605.41;5072384;28;47099;-76
2022/12/02 01:58:25;;;;;;;;;34.50;31.25;;;;;7.65;66.47;101626.06;5073244;28;45654;-74
2022/12/02 02:00:53;;;;;;;;;47.75;33.50;;;;;7.62;66.57;101614.91;5073264;28;45813;-76
2022/12/02 02:03:18;;;;;;;;;44.50;38.00;;;;;7.58;66.40;101601.16;5072817;28;46640;-76
2022/12/02 02:05:45;;;;;;;;;35.25;29.25;;;;;7.62;66.39;101622.72;5072331;28;47349;-75
2022/12/02 02:08:12;;;;;;;;;37.50;29.50;;;;;7.63;66.38;101621.81;5072594;28;45655;-75
2022/12/02 02:10:40;;;;;;;;;40.00;33.50;;;;;7.62;66.53;101618.38;5073315;28;45503;-76
2022/12/02 02:13:08;;;;;;;;;40.00;34.50;;;;;7.56;66.61;101605.59;5054635;28;48886;-74
2022/12/02 02:15:36;;;;;;;;;41.50;35.50;;;;;7.65;66.39;101614.78;5073069;28;46106;-76
2022/12/02 02:18:01;;;;;;;;;40.75;32.00;;;;;7.64;66.42;101623.53;5074321;28;45593;-74
2022/12/02 02:20:27;;;;;;;;;35.25;31.75;;;;;7.59;66.24;101613.28;5074210;28;45756;-76
2022/12/02 02:23:05;;;;;;;;;43.25;34.50;;;;;7.62;66.45;101596.66;5072939;28;46498;-74
2022/12/02 02:25:39;;;;;;;;;34.75;29.50;;;;;7.58;66.53;101594.19;5072702;28;46209;-75
2022/12/02 02:28:06;;;;;;;;;35.00;29.75;;;;;7.59;66.26;101590.69;5072676;28;45691;-76
2022/12/02 02:30:33;;;;;;;;;48.00;35.75;;;;;7.58;66.50;101594.19;5073045;28;45771;-76
2022/12/02 02:33:07;;;;;;;;;38.00;34.00;;;;;7.59;66.59;101597.66;5057788;28;48090;-75
2022/12/02 02:35:34;;;;;;;;;37.00;29.50;;;;;7.62;66.29;101591.44;5075855;28;46881;-74
2022/12/02 02:38:00;;;;;;;;;39.25;31.50;;;;;7.63;66.47;101585.31;5076497;28;45880;-76
2022/12/02 02:40:28;;;;;;;;;43.00;33.50;;;;;7.54;66.29;101569.16;5076549;28;45582;-75
2022/12/02 02:42:58;;;;;;;;;33.25;27.25;;;;;7.61;66.27;101579.34;5075098;28;45669;-75
2022/12/02 02:45:26;;;;;;;;;38.00;28.50;;;;;7.64;66.27;101580.03;5075516;28;46551;-77
2022/12/02 02:47:52;;;;;;;;;38.50;30.50;;;;;7.57;66.00;101569.03;5075857;28;45632;-75
2022/12/02 02:50:18;;;;;;;;;37.50;31.25;;;;;7.62;66.44;101573.19;5076177;28;45859;-75
2022/12/02 02:52:44;;;;;;;;;41.25;32.75;;;;;7.65;66.14;101568.72;5075848;28;46626;-77
2022/12/02 02:55:16;;;;;;;;;38.50;31.75;;;;;7.66;66.15;101577.38;5075372;28;46448;-76
2022/12/02 02:57:42;;;;;;;;;40.25;30.00;;;;;7.62;66.24;101561.00;5075706;28;45899;-75
2022/12/02 03:00:08;;;;;;;;;42.75;32.00;;;;;7.64;66.27;101564.41;5075905;28;45664;-76
2022/12/02 03:02:33;;;;;;;;;37.00;30.75;;;;;7.66;66.08;101566.94;5075772;28;46266;-75
2022/12/02 03:04:59;;;;;;;;;43.50;33.00;;;;;7.58;66.15;101552.47;5075209;28;46173;-76
2022/12/02 03:10:46;;;;;;;;;37.25;28.75;;;;;7.65;66.15;101558.28;5075891;28;45652;-76
2022/12/02 03:13:12;;;;;;;;;37.75;28.00;;;;;7.67;66.27;101552.97;5075455;28;46745;-76
2022/12/02 03:16:28;;;;;;;;;;;;;;;;;;;;;
2022/12/02 03:29:56;;;;;;;;;43.75;34.25;;;;;7.71;65.78;101558.00;4877460;29;46090;-76
2022/12/02 03:32:22;;;;;;;;;33.75;31.00;;;;;7.71;65.89;101544.13;4876455;29;46062;-74
2022/12/02 03:35:01;;;;;;;;;35.75;31.25;;;;;7.72;65.80;101543.22;4877119;29;45737;-75
2022/12/02 03:40:48;;;;;;;;;37.00;32.00;;;;;7.61;65.93;101538.47;4877191;29;46264;-74
2022/12/02 03:43:16;;;;;;;;;39.25;29.50;;;;;7.65;65.62;101540.03;4876238;29;45801;-74
2022/12/02 03:45:42;;;;;;;;;43.50;35.75;;;;;7.62;65.81;101528.84;4876732;28;45742;-74
2022/12/02 03:55:13;;;;;;;;;39.25;33.50;;;;;7.61;65.59;101522.81;4857902;29;45905;-75
2022/12/02 03:57:49;;;;;;;;;41.50;32.25;;;;;7.63;65.70;101522.72;4857989;29;45791;-76
2022/12/02 04:00:15;;;;;;;;;35.50;28.75;;;;;7.53;65.52;101504.91;4883909;28;45900;-74
2022/12/02 04:02:52;;;;;;;;;38.25;28.75;;;;;7.57;65.43;101522.09;4914545;28;47072;-76
2022/12/02 04:05:17;;;;;;;;;38.25;34.25;;;;;7.24;65.71;101460.16;4933430;28;45721;-75
2022/12/02 04:11:04;;;;;;;;;36.75;32.50;;;;;7.60;65.31;101526.34;4992197;28;45929;-75
2022/12/02 04:13:30;;;;;;;;;28.25;24.75;;;;;7.58;65.42;101515.13;4991900;28;47274;-74
2022/12/02 04:15:58;;;;;;;;;39.00;32.25;;;;;7.59;65.56;101509.00;4992355;28;45696;-76
2022/12/02 04:18:26;;;;;;;;;36.00;30.00;;;;;7.50;65.30;101486.75;4976370;28;45977;-76
2022/12/02 04:20:52;;;;;;;;;39.50;29.75;;;;;7.62;65.56;101501.03;4976148;28;46356;-75
2022/12/02 04:27:18;;;;;;;;;37.00;30.75;;;;;7.53;65.30;101491.84;4991434;28;45855;-76
2022/12/02 04:29:44;;;;;;;;;50.75;36.75;;;;;7.60;65.32;101495.03;5042197;28;45770;-76
2022/12/02 04:32:12;;;;;;;;;36.25;24.00;;;;;7.58;65.35;101486.44;5053783;28;47439;-75
2022/12/02 04:34:37;;;;;;;;;45.25;36.75;;;;;7.52;65.45;101482.34;5052614;28;46620;-75
2022/12/02 04:37:03;;;;;;;;;34.50;27.75;;;;;7.50;65.40;101476.34;5053524;28;45645;-75
2022/12/02 04:39:28;;;;;;;;;32.75;29.75;;;;;7.56;65.56;101489.09;5052612;28;45925;-76
2022/12/02 04:41:53;;;;;;;;;44.75;31.00;;;;;7.59;65.38;101506.38;5053725;28;46746;-75
2022/12/02 04:44:19;;;;;;;;;38.00;29.50;;;;;7.58;65.53;101505.53;5053392;28;47134;-76
2022/12/02 04:46:44;;;;;;;;;41.25;32.25;;;;;7.56;65.45;101494.31;5053550;28;45590;-74
2022/12/02 04:49:09;;;;;;;;;40.25;32.25;;;;;7.56;65.31;101499.53;5054179;28;45841;-74
2022/12/02 04:51:49;;;;;;;;;44.50;37.75;;;;;7.21;65.39;101429.88;5052240;28;47545;-75
2022/12/02 04:57:59;;;;;;;;;40.50;35.00;;;;;7.39;65.59;101449.06;4951960;28;45672;-76
2022/12/02 05:04:29;;;;;;;;;34.00;28.75;;;;;7.16;65.38;101403.16;4839295;29;46454;-75
2022/12/02 05:34:33;;;;;;;;;38.25;34.75;;;;;7.63;65.48;101466.22;5100987;27;45614;-75
2022/12/02 05:36:58;;;;;;;;;43.50;33.75;;;;;7.64;65.39;101460.09;5085512;27;45669;-75
2022/12/02 05:39:24;;;;;;;;;50.50;37.75;;;;;7.65;65.45;101458.31;5086108;27;45934;-75
2022/12/02 05:41:49;;;;;;;;;45.25;35.25;;;;;7.65;65.31;101445.28;5055483;27;47463;-75
2022/12/02 05:44:19;;;;;;;;;47.75;37.00;;;;;7.64;65.26;101434.00;5084880;27;46897;-75
2022/12/02 05:46:45;;;;;;;;;34.00;30.75;;;;;7.71;65.37;101450.22;5083919;27;46154;-75
2022/12/02 05:49:18;;;;;;;;;52.00;36.50;;;;;7.64;65.24;101434.00;5080478;27;45653;-74
2022/12/02 05:51:45;;;;;;;;;47.75;39.00;;;;;7.72;65.22;101444.91;5082217;27;46543;-74
2022/12/02 05:54:17;;;;;;;;;45.00;34.25;;;;;7.68;65.26;101440.78;5081850;27;47019;-75
2022/12/02 05:57:07;;;;;;;;;43.50;38.00;;;;;7.70;65.26;101436.34;5081087;27;46010;-76
2022/12/02 06:03:32;;;;;;;;;38.75;33.75;;;;;7.26;65.31;101370.56;4922705;28;46107;-75
2022/12/02 06:05:57;;;;;;;;;48.50;36.50;;;;;7.69;65.27;101428.59;4911430;28;47214;-74
2022/12/02 06:08:31;;;;;;;;;42.75;32.75;;;;;7.66;65.12;101421.75;4907090;28;46062;-75
2022/12/02 06:11:01;;;;;;;;;44.25;37.75;;;;;7.75;65.00;101436.97;4931364;28;46146;-77
2022/12/02 06:13:31;;;;;;;;;46.75;38.75;;;;;7.69;65.07;101413.78;4923767;28;47368;-76
2022/12/02 06:15:59;;;;;;;;;47.00;33.00;;;;;7.75;65.12;101421.31;4922210;28;46353;-75
2022/12/02 06:18:31;;;;;;;;;37.25;31.50;;;;;7.75;65.19;101430.91;4914067;28;45796;-75
2022/12/02 06:21:00;;;;;;;;;44.00;34.25;;;;;7.77;65.09;101439.53;4924658;28;46167;-76
2022/12/02 06:23:28;;;;;;;;;49.50;36.50;;;;;7.74;64.70;101426.59;4923087;28;47137;-74
2022/12/02 06:25:57;;;;;;;;;40.25;33.25;;;;;7.76;65.05;101435.22;4918916;28;47229;-75
2022/12/02 06:28:30;;;;;;;;;46.00;38.00;;;;;7.74;65.01;101429.22;4920139;28;46557;-76
2022/12/02 06:30:58;;;;;;;;;45.00;39.25;;;;;7.73;65.10;101424.91;4910716;28;45968;-75
2022/12/02 06:33:30;;;;;;;;;49.00;37.75;;;;;7.70;65.12;101425.91;4922304;28;45727;-73
2022/12/02 06:36:00;;;;;;;;;46.75;38.50;;;;;7.72;65.33;101424.06;4911487;28;46347;-75
2022/12/02 06:38:31;;;;;;;;;44.75;32.75;;;;;7.75;65.39;101428.31;4908241;28;46195;-75
2022/12/02 06:47:57;;;;;;;;;38.00;33.75;;;;;7.75;65.25;101431.75;4989247;28;45861;-76
2022/12/02 06:50:22;;;;;;;;;35.75;31.25;;;;;7.70;65.23;101412.88;4989720;28;46304;-74
2022/12/02 06:52:48;;;;;;;;;47.00;37.75;;;;;7.68;65.24;101409.47;4998152;28;45887;-74
2022/12/02 06:55:46;;;;;;;;;46.50;38.25;;;;;7.71;65.47;101430.22;4985283;28;47002;-74
2022/12/02 07:09:28;;;;;;;;;49.75;35.50;;;;;7.45;65.85;101381.84;4404105;27;18931836;-75
2022/12/02 07:11:58;;;;;;;;;45.75;34.75;;;;;7.45;65.80;101391.44;5031296;28;46356;-75
2022/12/02 07:14:33;;;;;;;;;47.25;33.25;;;;;7.59;66.03;101415.13;5038582;28;46393;-75
2022/12/02 07:17:17;;;;;;;;;39.50;35.25;;;;;7.66;65.96;101420.91;5041181;28;46290;-75
2022/12/02 07:19:44;;;;;;;;;47.75;37.00;;;;;7.58;65.84;101408.22;5026504;28;46007;-75
2022/12/02 07:22:18;;;;;;;;;47.50;35.50;;;;;7.67;65.83;101404.31;5030180;28;46405;-74
2022/12/02 07:24:51;;;;;;;;;42.50;33.50;;;;;7.68;65.75;101411.22;5029014;28;46209;-75
2022/12/02 07:27:24;;;;;;;;;45.00;38.50;;;;;7.66;66.09;101426.13;5040839;28;46420;-74
2022/12/02 07:29:51;;;;;;;;;38.25;31.75;;;;;7.68;65.85;101421.66;5041516;28;45754;-75
2022/12/02 07:32:17;;;;;;;;;50.75;38.25;;;;;7.68;66.12;101424.28;5038629;28;46079;-75
2022/12/02 07:34:42;;;;;;;;;57.00;39.50;;;;;7.67;66.03;101417.34;5021790;28;46692;-75
2022/12/02 07:37:08;;;;;;;;;47.50;34.75;;;;;7.68;66.12;101419.91;5038155;28;46614;-74
2022/12/02 07:39:33;;;;;;;;;41.00;34.25;;;;;7.69;66.26;101410.31;5023066;28;45788;-75
2022/12/02 07:42:02;;;;;;;;;51.50;39.00;;;;;7.69;66.37;101407.72;5022525;28;46773;-75
2022/12/02 07:44:27;;;;;;;;;45.00;37.25;;;;;7.69;66.40;101411.16;5008092;28;48323;-74
2022/12/02 07:46:52;;;;;;;;;54.25;40.00;;;;;7.68;66.23;101414.69;5065776;27;45991;-77
2022/12/02 07:49:18;;;;;;;;;51.75;38.75;;;;;7.69;66.47;101418.16;5112486;27;45918;-75
2022/12/02 07:51:51;;;;;;;;;47.50;40.50;;;;;7.68;66.44;101424.28;5102508;27;47441;-75
2022/12/02 07:54:47;;;;;;;;;;;;;;;;;;;;;
2022/12/02 08:00:54;;;;;;;;;42.00;35.25;;;;;7.65;66.68;101404.41;4924935;28;46042;-75
2022/12/02 08:03:19;;;;;;;;;56.00;40.50;;;;;7.69;66.50;101412.94;4922980;28;47381;-75
2022/12/02 08:05:44;;;;;;;;;40.50;35.50;;;;;7.70;66.57;101414.63;4906872;28;48265;-74
2022/12/02 08:08:10;;;;;;;;;46.00;38.50;;;;;7.69;66.66;101412.94;4924631;28;45898;-75
2022/12/02 08:10:35;;;;;;;;;48.00;36.00;;;;;7.71;66.72;101416.31;4924220;28;46151;-74
2022/12/02 08:13:01;;;;;;;;;55.00;42.25;;;;;7.68;66.62;101426.88;4923651;28;46577;-74
2022/12/02 08:15:26;;;;;;;;;49.25;42.25;;;;;7.66;66.68;101408.72;4922708;28;46174;-76
2022/12/02 08:17:52;;;;;;;;;48.75;33.50;;;;;7.66;66.79;101411.31;4924588;28;46112;-75
2022/12/02 08:20:17;;;;;;;;;52.00;40.25;;;;;7.69;66.91;101410.31;4911202;28;45764;-76
2022/12/02 08:22:43;;;;;;;;;52.00;40.00;;;;;7.68;66.70;101406.03;4909515;28;47156;-76
2022/12/02 08:25:09;;;;;;;;;61.00;41.75;;;;;7.71;66.94;101419.78;4892360;28;47423;-75
2022/12/02 08:27:36;;;;;;;;;58.50;42.25;;;;;7.68;67.08;101406.03;4911074;28;45861;-75
2022/12/02 08:30:02;;;;;;;;;44.00;39.25;;;;;7.64;67.08;101405.31;4911585;28;45782;-75
2022/12/02 08:32:27;;;;;;;;;51.25;40.50;;;;;7.69;66.93;101424.22;4910520;28;47150;-75
2022/12/02 08:34:53;;;;;;;;;55.75;42.25;;;;;7.68;67.04;101425.13;4940536;28;46214;-75
2022/12/02 08:37:18;;;;;;;;;41.75;38.75;;;;;7.68;66.94;101424.28;4996992;27;45751;-75
2022/12/02 08:39:43;;;;;;;;;63.00;42.25;;;;;7.67;67.08;101431.25;5100856;27;45781;-74
2022/12/02 08:42:09;;;;;;;;;56.00;44.25;;;;;7.63;67.11;101421.03;5093671;27;46310;-75
2022/12/02 08:44:34;;;;;;;;;52.00;40.75;;;;;7.63;66.82;101434.91;5090773;27;46037;-75
2022/12/02 08:47:00;;;;;;;;;48.25;38.50;;;;;7.61;67.12;101425.50;5087856;27;45795;-75
2022/12/02 08:49:26;;;;;;;;;50.00;39.50;;;;;7.59;67.10;101422.94;5091552;27;45649;-73
2022/12/02 08:51:51;;;;;;;;;60.50;43.50;;;;;7.57;67.16;101423.00;5095225;27;46258;-74
2022/12/02 08:54:17;;;;;;;;;58.00;42.00;;;;;7.58;67.06;101421.25;5091663;27;45967;-75
2022/12/02 08:56:43;;;;;;;;;56.75;44.25;;;;;7.58;67.02;101423.84;5093996;27;46194;-76
2022/12/02 08:59:09;;;;;;;;;54.50;41.50;;;;;7.58;67.06;101419.50;5092087;27;45621;-74
2022/12/02 09:01:36;;;;;;;;;60.25;43.00;;;;;7.55;67.20;101409.22;5074025;27;45934;-74
2022/12/02 09:04:01;;;;;;;;;55.75;40.75;;;;;7.57;67.34;101409.13;5090999;27;46277;-75
2022/12/02 09:06:27;;;;;;;;;50.00;39.75;;;;;7.59;67.06;101413.38;5094534;27;45769;-76
2022/12/02 09:08:52;;;;;;;;;51.75;39.00;;;;;7.60;67.12;101395.97;5101519;27;46047;-75
2022/12/02 09:11:20;;;;;;;;;49.25;42.00;;;;;7.62;67.16;101401.09;5093168;27;46415;-75
2022/12/02 09:13:45;;;;;;;;;54.25;42.25;;;;;7.63;67.21;101402.78;5082733;27;46338;-75
2022/12/02 09:16:11;;;;;;;;;56.75;41.25;;;;;7.63;67.18;101406.22;5108219;27;45605;-75
2022/12/02 09:18:36;;;;;;;;;55.00;41.50;;;;;7.63;66.98;101406.22;5109367;27;45777;-76
2022/12/02 09:21:01;;;;;;;;;54.00;38.25;;;;;7.64;67.18;101407.09;5100325;27;45987;-75
2022/12/02 09:23:28;;;;;;;;;59.50;42.00;;;;;7.59;67.12;101399.47;5072131;27;47020;-75
2022/12/02 09:25:53;;;;;;;;;62.75;44.25;;;;;7.64;67.32;101422.72;5090220;27;46069;-73
2022/12/02 09:28:20;;;;;;;;;51.25;42.50;;;;;7.65;67.14;101409.63;5083454;27;45879;-73
2022/12/02 09:30:46;;;;;;;;;60.75;42.75;;;;;7.65;67.15;101406.16;5099147;27;46540;-74
2022/12/02 09:33:13;;;;;;;;;61.75;45.25;;;;;7.66;67.35;101408.72;5098244;27;46346;-75
2022/12/02 09:35:39;;;;;;;;;57.00;44.50;;;;;7.59;67.33;101395.09;5090491;27;45774;-74
2022/12/02 09:38:04;;;;;;;;;61.25;46.25;;;;;7.59;67.11;101394.25;5090997;27;45681;-74
2022/12/02 09:40:32;;;;;;;;;61.25;46.25;;;;;7.63;67.26;101410.59;5103834;27;45640;-73
2022/12/02 09:42:58;;;;;;;;;63.50;48.50;;;;;7.63;67.16;101415.81;5100691;27;46255;-74
2022/12/02 09:45:23;;;;;;;;;66.75;49.25;;;;;7.61;67.17;101404.63;5080370;27;45870;-75
2022/12/02 09:47:49;;;;;;;;;61.00;46.00;;;;;7.60;67.11;101403.78;5090787;27;45578;-74
2022/12/02 09:50:16;;;;;;;;;63.75;48.25;;;;;7.62;67.53;101394.09;5090836;27;46394;-74
2022/12/02 09:52:42;;;;;;;;;58.00;43.75;;;;;7.59;67.21;101381.22;5099487;27;46337;-75
2022/12/02 09:55:17;;;;;;;;;65.50;44.25;;;;;7.62;66.98;101388.03;5092510;27;45892;-75
2022/12/02 09:57:42;;;;;;;;;65.00;46.00;;;;;7.62;67.27;101388.91;5089113;27;45978;-75
2022/12/02 10:00:19;;;;;;;;;41.75;35.25;;;;;7.61;67.05;101383.78;5091482;27;48514;-75
2022/12/02 10:02:50;;;;;;;;;62.25;46.25;;;;;7.67;67.01;101391.28;5090370;27;46323;-75
2022/12/02 10:05:18;;;;;;;;;61.50;46.25;;;;;7.67;66.86;101389.53;5093730;27;45742;-74
2022/12/02 10:07:45;;;;;;;;;61.50;42.25;;;;;7.63;66.82;101374.94;5077543;27;45896;-75
2022/12/02 10:10:13;;;;;;;;;61.75;44.00;;;;;7.65;67.08;101373.13;5095971;27;46683;-74
2022/12/02 10:12:38;;;;;;;;;56.25;44.25;;;;;7.68;66.99;101374.72;5103690;27;46086;-75
2022/12/02 10:15:05;;;;;;;;;61.00;47.00;;;;;7.67;66.94;101380.84;5097302;27;45815;-75
2022/12/02 10:17:31;;;;;;;;;62.00;44.50;;;;;7.65;66.77;101375.72;5094484;27;46128;-75
2022/12/02 10:19:56;;;;;;;;;51.25;41.75;;;;;7.59;66.98;101356.00;5090940;27;46845;-74
2022/12/02 10:22:22;;;;;;;;;58.75;45.50;;;;;7.69;66.73;101366.84;5094924;27;46278;-74
2022/12/02 10:24:48;;;;;;;;;52.50;42.50;;;;;7.66;66.55;101364.38;5089122;27;46045;-75
2022/12/02 10:27:40;;;;;;;;;53.75;39.75;;;;;7.67;66.74;101373.88;5091411;27;46483;-75
2022/12/02 10:30:17;;;;;;;;;48.00;39.25;;;;;7.67;66.75;101365.19;5085899;27;46460;-75
2022/12/02 10:32:57;;;;;;;;;53.25;44.25;;;;;7.64;66.75;101355.78;5103485;27;47086;-74
2022/12/02 10:35:23;;;;;;;;;60.25;44.75;;;;;7.62;66.82;101344.56;5102632;27;45770;-74
2022/12/02 10:37:48;;;;;;;;;63.25;45.50;;;;;7.66;66.71;101356.56;5095323;27;46127;-74
2022/12/02 10:40:23;;;;;;;;;68.50;47.25;;;;;7.65;66.53;101362.69;5067386;27;47160;-75
2022/12/02 10:43:11;;;;;;;;;56.00;42.25;;;;;7.65;66.39;101348.81;5089162;27;46142;-75
2022/12/02 10:45:37;;;;;;;;;54.00;44.00;;;;;7.62;66.58;101346.31;5090031;27;45746;-74
2022/12/02 10:48:43;;;;;;;;;52.50;40.50;;;;;7.65;66.48;101347.03;5079515;27;45728;-74
2022/12/02 10:57:57;;;;;;;;;61.00;43.00;;;;;7.36;66.72;101280.63;4850393;29;46232;-76
2022/12/02 11:01:02;;;;;;;;;;;;;;;;;;;;;
2022/12/02 11:03:31;;;;;;;;;61.25;46.50;;;;;7.25;66.53;101249.00;4849798;29;74578;-76
2022/12/02 11:06:03;;;;;;;;;61.00;44.50;;;;;7.47;66.60;101286.19;4833366;29;48123;-75
2022/12/02 11:08:31;;;;;;;;;60.75;42.50;;;;;7.73;66.51;101324.03;4833660;29;45821;-75
2022/12/02 11:11:16;;;;;;;;;62.25;46.75;;;;;7.75;66.47;101326.59;4833568;29;45729;-75
2022/12/02 11:14:38;;;;;;;;;65.50;45.00;;;;;7.68;66.44;101319.97;4840562;29;46154;-74
2022/12/02 11:17:46;;;;;;;;;58.50;42.50;;;;;7.69;66.74;101316.44;4815279;29;46112;-74
2022/12/02 11:44:01;;;;;;;;;56.33;43.33;;;;;7.19;66.31;101205.00;5480243;22;16076494;-75
2022/12/02 11:46:56;;;;;;;;;57.00;41.75;;;;;7.64;66.03;101287.97;6058814;23;46032;-75
2022/12/02 11:49:33;;;;;;;;;60.50;44.25;;;;;7.65;66.15;101283.63;6002374;23;45953;-76
2022/12/02 11:52:02;;;;;;;;;61.00;42.75;;;;;7.51;66.42;101269.47;6001871;23;46282;-75
2022/12/02 11:54:30;;;;;;;;;58.75;44.25;;;;;7.65;66.12;101278.41;5976749;23;48425;-75
2022/12/02 11:56:57;;;;;;;;;59.50;47.00;;;;;7.59;66.03;101264.75;6001643;23;46028;-75
2022/12/02 11:59:27;;;;;;;;;53.75;40.50;;;;;7.56;66.24;101258.81;6002129;23;45962;-75
2022/12/02 12:02:19;;;;;;;;;58.50;43.25;;;;;7.58;66.03;101262.19;5977387;23;47792;-75
2022/12/02 12:04:45;;;;;;;;;61.75;48.50;;;;;7.59;66.24;101263.91;6001123;23;46154;-77
2022/12/02 12:07:12;;;;;;;;;48.25;41.00;;;;;7.60;66.12;101262.97;6002044;23;45835;-75
2022/12/02 12:09:38;;;;;;;;;52.75;40.25;;;;;7.58;66.21;101257.81;6002234;23;45668;-75
2022/12/02 12:12:09;;;;;;;;;57.50;46.50;;;;;7.57;66.13;101258.75;6001435;23;46369;-76
2022/12/02 12:14:57;;;;;;;;;59.00;44.50;;;;;7.50;66.07;101246.91;6000786;23;46453;-76
2022/12/02 12:17:31;;;;;;;;;56.00;41.25;;;;;7.49;66.16;101245.25;6002893;23;45943;-75
2022/12/02 12:19:57;;;;;;;;;56.25;42.00;;;;;7.47;66.39;101241.84;6001696;23;45925;-76
2022/12/02 12:22:27;;;;;;;;;58.75;46.25;;;;;7.47;66.51;101247.06;6034556;23;47459;-76
2022/12/02 12:24:52;;;;;;;;;62.75;47.25;;;;;7.47;66.94;101243.63;6124467;23;45898;-75
2022/12/02 12:27:33;;;;;;;;;65.75;46.50;;;;;7.39;67.79;101230.97;6182192;23;45632;-75
2022/12/02 12:29:59;;;;;;;;;55.75;40.00;;;;;7.40;68.04;101234.38;6180254;23;45668;-76
2022/12/02 12:32:24;;;;;;;;;60.00;42.75;;;;;7.38;68.18;101224.06;6181684;23;46098;-75
2022/12/02 12:34:50;;;;;;;;;59.00;42.25;;;;;7.39;68.29;101219.69;6179986;23;45765;-75
2022/12/02 12:37:15;;;;;;;;;60.00;47.75;;;;;7.33;68.55;101215.63;6178994;23;45968;-75
2022/12/02 12:39:40;;;;;;;;;55.25;44.00;;;;;7.38;68.55;101218.84;6175330;23;45533;-74
2022/12/02 12:42:06;;;;;;;;;47.00;38.25;;;;;7.36;68.33;101210.25;6173279;23;47919;-76
2022/12/02 12:44:31;;;;;;;;;61.00;42.75;;;;;7.32;68.18;101200.03;6173656;23;45587;-75
2022/12/02 12:47:02;;;;;;;;;55.50;41.50;;;;;7.30;68.23;101201.88;6173554;23;45584;-74
2022/12/02 12:49:27;;;;;;;;;43.00;37.00;;;;;7.29;68.15;101205.41;6175325;22;45660;-75
2022/12/02 12:51:53;;;;;;;;;51.50;39.75;;;;;7.25;68.26;101198.66;6174851;23;45836;-74
2022/12/02 12:54:18;;;;;;;;;61.50;42.75;;;;;7.24;68.31;101200.41;6171355;23;48081;-76
2022/12/02 12:56:44;;;;;;;;;53.75;40.00;;;;;7.24;68.20;101178.72;6175193;22;46127;-75
2022/12/02 12:59:09;;;;;;;;;54.75;44.00;;;;;7.25;68.11;101190.81;6175241;23;45750;-74
2022/12/02 13:01:36;;;;;;;;;53.50;43.00;;;;;7.25;68.00;101183.00;6174548;23;46468;-76
2022/12/02 13:04:02;;;;;;;;;53.75;39.25;;;;;7.25;68.01;101177.78;6173955;22;46310;-75
2022/12/02 13:06:27;;;;;;;;;43.50;33.50;;;;;7.23;68.09;101169.22;6174742;23;45515;-75
2022/12/02 13:08:53;;;;;;;;;62.00;43.75;;;;;7.25;68.10;101163.00;6175541;23;45826;-75
2022/12/02 13:11:18;;;;;;;;;51.75;43.25;;;;;7.29;68.04;101169.75;6174423;23;47600;-75
2022/12/02 13:13:43;;;;;;;;;54.50;41.50;;;;;7.30;68.05;101165.38;6174066;23;46121;-75
2022/12/02 13:16:09;;;;;;;;;62.75;47.75;;;;;7.36;68.06;101178.13;6174986;22;45670;-75
2022/12/02 13:18:34;;;;;;;;;61.00;45.75;;;;;7.35;68.00;101171.22;6174402;23;45532;-75
2022/12/02 13:20:59;;;;;;;;;60.25;46.00;;;;;7.29;68.21;101159.31;6172613;23;47243;-75
2022/12/02 13:23:25;;;;;;;;;58.75;43.00;;;;;7.36;68.04;101173.75;6174002;22;45639;-75
2022/12/02 13:25:50;;;;;;;;;62.25;46.25;;;;;7.37;68.15;101172.84;6174536;22;45821;-75
2022/12/02 13:28:16;;;;;;;;;56.50;41.50;;;;;7.39;67.99;101163.19;6175400;23;45830;-76
2022/12/02 13:30:41;;;;;;;;;56.75;44.00;;;;;7.36;68.04;101158.13;6174874;22;45964;-75
2022/12/02 13:33:06;;;;;;;;;59.25;45.50;;;;;7.32;67.98;101140.94;6173904;23;46033;-75
2022/12/02 13:35:32;;;;;;;;;56.75;41.75;;;;;7.38;68.04;101160.66;6174854;23;45992;-74
2022/12/02 13:37:57;;;;;;;;;57.50;41.75;;;;;7.43;68.07;101156.91;6175353;22;45813;-76
2022/12/02 13:40:23;;;;;;;;;58.25;43.00;;;;;7.44;68.11;101156.00;6174755;22;45575;-74
2022/12/02 13:42:48;;;;;;;;;61.25;45.75;;;;;7.45;68.10;101151.63;6172635;23;47200;-75